sensor_id;sensor_type;location;lat;lon;timestamp;pressure;altitude;pressure_sealevel;temperature;humidity
63405;BME280;49541;57.840;12.306;2022-12-11T00:01:20;100467.13;;;-2.81;69.71
63405;BME280;49541;57.840;12.306;2022-12-11T00:06:21;100471.91;;;-2.19;62.42
63405;BME280;49541;57.840;12.306;2022-12-11T00:11:21;100468.34;;;-2.41;61.66
63405;BME280;49541;57.840;12.306;2022-12-11T00:16:22;100477.06;;;-2.68;61.07
63405;BME280;49541;57.840;12.306;2022-12-11T00:21:22;100479.75;;;-3.51;63.29
63405;BME280;49541;57.840;12.306;2022-12-11T00:26:22;100475.34;;;-4.09;64.75
63405;BME280;49541;57.840;12.306;2022-12-11T00:31:22;100472.84;;;-4.45;66.52
63405;BME280;49541;57.840;12.306;2022-12-11T00:36:24;100469.50;;;-4.49;65.69
63405;BME280;49541;57.840;12.306;2022-12-11T00:41:24;100469.81;;;-4.61;66.31
63405;BME280;49541;57.840;12.306;2022-12-11T00:46:25;100467.78;;;-5.19;67.79
63405;BME280;49541;57.840;12.306;2022-12-11T00:51:25;100467.03;;;-4.88;67.50
63405;BME280;49541;57.840;12.306;2022-12-11T00:56:25;100467.38;;;-4.67;67.02
63405;BME280;49541;57.840;12.306;2022-12-11T01:01:26;100468.50;;;-4.78;67.32
63405;BME280;49541;57.840;12.306;2022-12-11T01:06:26;100484.16;;;-5.17;68.40
63405;BME280;49541;57.840;12.306;2022-12-11T01:11:26;100492.78;;;-5.52;69.38
63405;BME280;49541;57.840;12.306;2022-12-11T01:16:27;100487.75;;;-5.60;70.53
63405;BME280;49541;57.840;12.306;2022-12-11T01:21:27;100492.06;;;-5.21;70.39
63405;BME280;49541;57.840;12.306;2022-12-11T01:26:27;100486.75;;;-5.15;69.03
63405;BME280;49541;57.840;12.306;2022-12-11T01:31:28;100481.97;;;-5.33;68.93
63405;BME280;49541;57.840;12.306;2022-12-11T01:36:28;100486.97;;;-5.24;69.38
63405;BME280;49541;57.840;12.306;2022-12-11T01:41:28;100486.66;;;-5.12;68.66
63405;BME280;49541;57.840;12.306;2022-12-11T01:46:29;100504.38;;;-5.29;69.21
63405;BME280;49541;57.840;12.306;2022-12-11T01:51:30;100496.41;;;-5.59;70.24
63405;BME280;49541;57.840;12.306;2022-12-11T01:56:32;100500.59;;;-5.55;70.16
63405;BME280;49541;57.840;12.306;2022-12-11T02:01:38;100502.56;;;-5.65;71.18
63405;BME280;49541;57.840;12.306;2022-12-11T02:06:40;100504.69;;;-5.85;71.63
63405;BME280;49541;57.840;12.306;2022-12-11T02:22:10;100492.22;;;-5.27;70.02
63405;BME280;49541;57.840;12.306;2022-12-11T02:32:20;100482.13;;;-5.04;70.11
63405;BME280;49541;57.840;12.306;2022-12-11T02:37:22;100479.25;;;-4.91;69.29
63405;BME280;49541;57.840;12.306;2022-12-11T02:42:24;100483.59;;;-4.92;70.11
63405;BME280;49541;57.840;12.306;2022-12-11T02:47:26;100481.50;;;-4.78;69.06
63405;BME280;49541;57.840;12.306;2022-12-11T02:52:28;100485.78;;;-4.42;67.68
63405;BME280;49541;57.840;12.306;2022-12-11T02:57:32;100482.53;;;-4.50;67.25
63405;BME280;49541;57.840;12.306;2022-12-11T03:02:35;100487.16;;;-4.62;68.13
63405;BME280;49541;57.840;12.306;2022-12-11T03:07:37;100479.63;;;-4.38;67.38
63405;BME280;49541;57.840;12.306;2022-12-11T03:12:39;100487.06;;;-4.59;68.55
63405;BME280;49541;57.840;12.306;2022-12-11T03:17:46;100479.25;;;-4.91;69.39
63405;BME280;49541;57.840;12.306;2022-12-11T03:22:52;100485.94;;;-4.81;69.56
63405;BME280;49541;57.840;12.306;2022-12-11T03:28:15;100474.28;;;-4.66;68.37
63405;BME280;49541;57.840;12.306;2022-12-11T03:33:22;100474.44;;;-5.07;71.50
63405;BME280;49541;57.840;12.306;2022-12-11T03:38:27;100463.78;;;-4.62;71.40
63405;BME280;49541;57.840;12.306;2022-12-11T03:43:29;100465.50;;;-4.28;69.61
63405;BME280;49541;57.840;12.306;2022-12-11T03:48:31;100461.31;;;-4.35;70.29
63405;BME280;49541;57.840;12.306;2022-12-11T03:53:33;100458.06;;;-4.10;69.13
63405;BME280;49541;57.840;12.306;2022-12-11T03:58:37;100454.75;;;-3.86;66.88
63405;BME280;49541;57.840;12.306;2022-12-11T04:03:38;100451.31;;;-4.18;68.70
63405;BME280;49541;57.840;12.306;2022-12-11T04:08:38;100451.84;;;-3.47;66.91
63405;BME280;49541;57.840;12.306;2022-12-11T04:13:39;100453.94;;;-3.58;66.36
63405;BME280;49541;57.840;12.306;2022-12-11T04:18:39;100458.69;;;-3.16;65.67
63405;BME280;49541;57.840;12.306;2022-12-11T04:23:58;100466.31;;;-3.38;65.47
63405;BME280;49541;57.840;12.306;2022-12-11T04:29:17;100459.72;;;-3.78;68.63
63405;BME280;49541;57.840;12.306;2022-12-11T04:34:17;100463.63;;;-3.63;68.23
63405;BME280;49541;57.840;12.306;2022-12-11T04:39:17;100459.91;;;-3.55;67.88
63405;BME280;49541;57.840;12.306;2022-12-11T04:44:17;100450.22;;;-3.79;68.68
63405;BME280;49541;57.840;12.306;2022-12-11T04:49:17;100455.72;;;-3.32;67.53
63405;BME280;49541;57.840;12.306;2022-12-11T04:54:17;100452.16;;;-3.86;70.03
63405;BME280;49541;57.840;12.306;2022-12-11T04:59:18;100444.75;;;-3.42;70.39
63405;BME280;49541;57.840;12.306;2022-12-11T05:04:18;100450.50;;;-3.60;71.80
63405;BME280;49541;57.840;12.306;2022-12-11T05:09:18;100450.38;;;-3.27;71.49
63405;BME280;49541;57.840;12.306;2022-12-11T05:14:18;100442.03;;;-3.39;71.23
63405;BME280;49541;57.840;12.306;2022-12-11T05:19:19;100443.66;;;-3.35;71.27
63405;BME280;49541;57.840;12.306;2022-12-11T05:24:19;100451.09;;;-3.22;71.14
63405;BME280;49541;57.840;12.306;2022-12-11T05:29:19;100456.16;;;-3.18;70.36
63405;BME280;49541;57.840;12.306;2022-12-11T05:34:19;100463.31;;;-3.24;71.02
63405;BME280;49541;57.840;12.306;2022-12-11T05:39:20;100456.88;;;-3.14;70.69
63405;BME280;49541;57.840;12.306;2022-12-11T05:44:20;100461.97;;;-3.38;71.26
63405;BME280;49541;57.840;12.306;2022-12-11T05:49:20;100466.72;;;-3.22;70.76
63405;BME280;49541;57.840;12.306;2022-12-11T05:54:20;100457.84;;;-3.45;70.98
63405;BME280;49541;57.840;12.306;2022-12-11T05:59:20;100453.22;;;-3.35;70.97
63405;BME280;49541;57.840;12.306;2022-12-11T06:04:21;100459.59;;;-2.91;69.84
63405;BME280;49541;57.840;12.306;2022-12-11T06:09:21;100465.78;;;-3.48;70.87
63405;BME280;49541;57.840;12.306;2022-12-11T06:14:21;100455.50;;;-3.53;71.55
63405;BME280;49541;57.840;12.306;2022-12-11T06:19:21;100464.38;;;-3.32;70.96
63405;BME280;49541;57.840;12.306;2022-12-11T06:24:21;100469.31;;;-3.22;70.77
63405;BME280;49541;57.840;12.306;2022-12-11T06:29:21;100469.41;;;-3.25;70.62
63405;BME280;49541;57.840;12.306;2022-12-11T06:34:22;100474.56;;;-2.97;70.08
63405;BME280;49541;57.840;12.306;2022-12-11T06:39:22;100469.00;;;-3.13;69.70
63405;BME280;49541;57.840;12.306;2022-12-11T06:44:22;100480.88;;;-3.04;69.83
63405;BME280;49541;57.840;12.306;2022-12-11T06:49:23;100485.16;;;-3.30;70.62
63405;BME280;49541;57.840;12.306;2022-12-11T06:54:27;100475.78;;;-3.36;70.98
63405;BME280;49541;57.840;12.306;2022-12-11T06:59:27;100484.69;;;-3.15;70.65
63405;BME280;49541;57.840;12.306;2022-12-11T07:04:27;100482.03;;;-3.13;70.77
63405;BME280;49541;57.840;12.306;2022-12-11T07:09:29;100486.06;;;-3.03;70.46
63405;BME280;49541;57.840;12.306;2022-12-11T07:14:29;100493.72;;;-2.98;70.52
63405;BME280;49541;57.840;12.306;2022-12-11T07:19:30;100496.19;;;-2.94;70.16
63405;BME280;49541;57.840;12.306;2022-12-11T07:24:30;100495.53;;;-3.00;70.06
63405;BME280;49541;57.840;12.306;2022-12-11T07:29:30;100493.25;;;-3.11;69.94
63405;BME280;49541;57.840;12.306;2022-12-11T07:34:30;100507.50;;;-2.95;69.83
63405;BME280;49541;57.840;12.306;2022-12-11T07:39:31;100509.63;;;-2.79;69.75
63405;BME280;49541;57.840;12.306;2022-12-11T07:44:31;100512.78;;;-2.96;70.10
63405;BME280;49541;57.840;12.306;2022-12-11T07:49:32;100512.13;;;-3.03;70.15
63405;BME280;49541;57.840;12.306;2022-12-11T07:54:32;100510.84;;;-2.91;69.85
63405;BME280;49541;57.840;12.306;2022-12-11T07:59:32;100517.19;;;-2.72;69.37
63405;BME280;49541;57.840;12.306;2022-12-11T08:04:32;100516.47;;;-2.77;68.97
63405;BME280;49541;57.840;12.306;2022-12-11T08:09:32;100518.22;;;-2.51;68.10
63405;BME280;49541;57.840;12.306;2022-12-11T08:14:33;100517.09;;;-2.69;67.90
63405;BME280;49541;57.840;12.306;2022-12-11T08:19:33;100514.84;;;-2.54;67.30
63405;BME280;49541;57.840;12.306;2022-12-11T08:24:33;100513.25;;;-2.58;67.01
63405;BME280;49541;57.840;12.306;2022-12-11T08:29:34;100506.88;;;-2.50;67.06
63405;BME280;49541;57.840;12.306;2022-12-11T08:34:34;100509.47;;;-2.23;66.07
63405;BME280;49541;57.840;12.306;2022-12-11T08:39:34;100499.78;;;-2.19;65.44
63405;BME280;49541;57.840;12.306;2022-12-11T08:44:34;100509.25;;;-2.17;65.41
63405;BME280;49541;57.840;12.306;2022-12-11T08:49:34;100510.50;;;-2.03;64.80
63405;BME280;49541;57.840;12.306;2022-12-11T08:54:35;100514.00;;;-2.04;65.05
63405;BME280;49541;57.840;12.306;2022-12-11T08:59:36;100516.72;;;-2.08;65.55
63405;BME280;49541;57.840;12.306;2022-12-11T09:04:36;100527.19;;;-1.84;65.18
63405;BME280;49541;57.840;12.306;2022-12-11T09:09:37;100520.38;;;-1.88;65.46
63405;BME280;49541;57.840;12.306;2022-12-11T09:14:37;100520.75;;;-1.74;65.44
63405;BME280;49541;57.840;12.306;2022-12-11T09:19:37;100515.75;;;-1.56;64.89
63405;BME280;49541;57.840;12.306;2022-12-11T09:24:37;100521.31;;;-1.66;64.81
63405;BME280;49541;57.840;12.306;2022-12-11T09:29:38;100531.16;;;-2.22;65.80
63405;BME280;49541;57.840;12.306;2022-12-11T09:34:38;100538.00;;;-1.70;65.56
63405;BME280;49541;57.840;12.306;2022-12-11T09:39:38;100534.59;;;-1.48;65.51
63405;BME280;49541;57.840;12.306;2022-12-11T09:49:40;100535.78;;;-1.33;66.06
63405;BME280;49541;57.840;12.306;2022-12-11T09:54:44;100531.56;;;-1.37;66.62
63405;BME280;49541;57.840;12.306;2022-12-11T10:10:16;100513.44;;;-0.76;65.62
63405;BME280;49541;57.840;12.306;2022-12-11T10:15:28;100504.75;;;-0.76;65.78
63405;BME280;49541;57.840;12.306;2022-12-11T10:20:34;100515.13;;;-0.53;65.70
63405;BME280;49541;57.840;12.306;2022-12-11T10:25:43;100513.00;;;-0.65;66.34
63405;BME280;49541;57.840;12.306;2022-12-11T10:31:31;100517.41;;;-0.66;65.83
63405;BME280;49541;57.840;12.306;2022-12-11T10:36:06;100514.44;;;-0.78;66.15
63405;BME280;49541;57.840;12.306;2022-12-11T10:41:13;100507.53;;;-0.79;66.40
63405;BME280;49541;57.840;12.306;2022-12-11T10:46:22;100505.72;;;-0.57;66.39
63405;BME280;49541;57.840;12.306;2022-12-11T10:51:24;100505.75;;;-0.58;65.96
63405;BME280;49541;57.840;12.306;2022-12-11T10:56:28;100499.94;;;-0.65;65.47
63405;BME280;49541;57.840;12.306;2022-12-11T11:01:30;100501.00;;;-0.49;65.44
63405;BME280;49541;57.840;12.306;2022-12-11T11:06:30;100495.78;;;-0.49;64.79
63405;BME280;49541;57.840;12.306;2022-12-11T11:11:31;100499.56;;;-0.35;64.97
63405;BME280;49541;57.840;12.306;2022-12-11T11:16:34;100500.72;;;-0.22;64.55
63405;BME280;49541;57.840;12.306;2022-12-11T11:21:35;100496.69;;;-0.29;64.29
63405;BME280;49541;57.840;12.306;2022-12-11T11:26:35;100493.06;;;-0.06;63.87
63405;BME280;49541;57.840;12.306;2022-12-11T11:31:36;100496.47;;;-0.04;63.40
63405;BME280;49541;57.840;12.306;2022-12-11T11:36:36;100499.59;;;0.04;62.56
63405;BME280;49541;57.840;12.306;2022-12-11T11:41:39;100498.50;;;-0.11;62.97
63405;BME280;49541;57.840;12.306;2022-12-11T11:46:43;100500.94;;;-0.27;63.08
63405;BME280;49541;57.840;12.306;2022-12-11T11:52:03;100499.03;;;-0.23;62.28
63405;BME280;49541;57.840;12.306;2022-12-11T11:57:12;100503.91;;;0.05;62.35
63405;BME280;49541;57.840;12.306;2022-12-11T12:02:15;100489.03;;;0.26;61.88
63405;BME280;49541;57.840;12.306;2022-12-11T12:12:19;100496.00;;;0.07;62.07
63405;BME280;49541;57.840;12.306;2022-12-11T12:17:40;100496.44;;;-0.23;62.51
63405;BME280;49541;57.840;12.306;2022-12-11T12:23:03;100496.47;;;-0.25;62.94
63405;BME280;49541;57.840;12.306;2022-12-11T12:28:25;100489.72;;;-0.92;65.22
63405;BME280;49541;57.840;12.306;2022-12-11T12:33:35;100504.84;;;-1.44;66.72
63405;BME280;49541;57.840;12.306;2022-12-11T12:38:46;100500.31;;;-1.62;67.65
63405;BME280;49541;57.840;12.306;2022-12-11T12:43:59;100493.50;;;-1.67;67.96
63405;BME280;49541;57.840;12.306;2022-12-11T12:49:04;100503.13;;;-1.92;68.68
63405;BME280;49541;57.840;12.306;2022-12-11T12:54:08;100500.75;;;-1.75;68.14
63405;BME280;49541;57.840;12.306;2022-12-11T12:59:21;100502.25;;;-1.91;68.70
63405;BME280;49541;57.840;12.306;2022-12-11T13:04:33;100501.13;;;-2.09;69.67
63405;BME280;49541;57.840;12.306;2022-12-11T13:09:33;100495.59;;;-2.25;69.49
63405;BME280;49541;57.840;12.306;2022-12-11T13:14:34;100489.22;;;-2.16;69.65
63405;BME280;49541;57.840;12.306;2022-12-11T13:19:34;100492.41;;;-2.08;70.00
63405;BME280;49541;57.840;12.306;2022-12-11T13:24:43;100495.69;;;-2.03;69.46
63405;BME280;49541;57.840;12.306;2022-12-11T13:29:44;100484.84;;;-2.16;69.86
63405;BME280;49541;57.840;12.306;2022-12-11T13:34:50;100492.19;;;-2.27;70.10
63405;BME280;49541;57.840;12.306;2022-12-11T13:39:51;100490.59;;;-2.31;71.04
63405;BME280;49541;57.840;12.306;2022-12-11T13:44:52;100489.84;;;-2.35;70.83
63405;BME280;49541;57.840;12.306;2022-12-11T13:49:53;100480.44;;;-2.64;70.96
63405;BME280;49541;57.840;12.306;2022-12-11T13:54:55;100491.47;;;-2.56;70.91
63405;BME280;49541;57.840;12.306;2022-12-11T13:59:58;100491.94;;;-2.71;71.71
63405;BME280;49541;57.840;12.306;2022-12-11T14:05:02;100496.47;;;-3.03;71.84
63405;BME280;49541;57.840;12.306;2022-12-11T14:10:08;100509.19;;;-2.67;71.52
63405;BME280;49541;57.840;12.306;2022-12-11T14:15:13;100505.59;;;-2.63;71.16
63405;BME280;49541;57.840;12.306;2022-12-11T14:20:32;100498.03;;;-2.71;71.73
63405;BME280;49541;57.840;12.306;2022-12-11T14:25:32;100500.38;;;-2.90;72.19
63405;BME280;49541;57.840;12.306;2022-12-11T14:30:33;100501.25;;;-3.17;72.84
63405;BME280;49541;57.840;12.306;2022-12-11T14:35:35;100507.56;;;-2.70;72.43
63405;BME280;49541;57.840;12.306;2022-12-11T14:40:39;100496.03;;;-3.16;73.17
63405;BME280;49541;57.840;12.306;2022-12-11T14:45:41;100509.56;;;-3.04;73.31
63405;BME280;49541;57.840;12.306;2022-12-11T14:50:45;100505.13;;;-3.29;73.90
63405;BME280;49541;57.840;12.306;2022-12-11T14:55:47;100505.00;;;-3.26;73.90
63405;BME280;49541;57.840;12.306;2022-12-11T15:05:57;100507.44;;;-2.93;73.15
63405;BME280;49541;57.840;12.306;2022-12-11T15:11:02;100509.97;;;-2.63;73.12
63405;BME280;49541;57.840;12.306;2022-12-11T15:16:03;100498.84;;;-2.43;72.45
63405;BME280;49541;57.840;12.306;2022-12-11T15:21:07;100503.84;;;-2.62;72.72
63405;BME280;49541;57.840;12.306;2022-12-11T15:26:08;100496.75;;;-2.59;72.55
63405;BME280;49541;57.840;12.306;2022-12-11T15:36:31;100502.41;;;-2.46;71.88
63405;BME280;49541;57.840;12.306;2022-12-11T15:41:33;100506.47;;;-2.37;71.50
63405;BME280;49541;57.840;12.306;2022-12-11T15:46:34;100506.66;;;-2.69;71.87
63405;BME280;49541;57.840;12.306;2022-12-11T15:51:34;100519.53;;;-2.64;71.36
63405;BME280;49541;57.840;12.306;2022-12-11T15:56:35;100529.66;;;-2.81;71.61
63405;BME280;49541;57.840;12.306;2022-12-11T16:01:35;100521.28;;;-2.91;72.63
63405;BME280;49541;57.840;12.306;2022-12-11T16:06:35;100520.81;;;-3.04;73.20
63405;BME280;49541;57.840;12.306;2022-12-11T16:11:35;100529.59;;;-3.06;73.51
63405;BME280;49541;57.840;12.306;2022-12-11T16:16:35;100525.94;;;-3.01;73.62
63405;BME280;49541;57.840;12.306;2022-12-11T16:21:35;100526.44;;;-2.63;72.66
63405;BME280;49541;57.840;12.306;2022-12-11T16:26:36;100528.84;;;-2.57;71.19
63405;BME280;49541;57.840;12.306;2022-12-11T16:31:36;100535.19;;;-2.64;70.73
63405;BME280;49541;57.840;12.306;2022-12-11T16:36:36;100525.72;;;-2.41;69.41
63405;BME280;49541;57.840;12.306;2022-12-11T16:41:37;100529.84;;;-2.61;69.06
63405;BME280;49541;57.840;12.306;2022-12-11T16:46:37;100538.97;;;-2.48;69.63
63405;BME280;49541;57.840;12.306;2022-12-11T16:51:37;100534.66;;;-2.49;69.52
63405;BME280;49541;57.840;12.306;2022-12-11T16:56:37;100524.25;;;-2.75;69.96
63405;BME280;49541;57.840;12.306;2022-12-11T17:01:37;100528.53;;;-2.73;69.68
63405;BME280;49541;57.840;12.306;2022-12-11T17:06:38;100531.63;;;-2.88;69.90
63405;BME280;49541;57.840;12.306;2022-12-11T17:11:38;100530.00;;;-2.65;69.66
63405;BME280;49541;57.840;12.306;2022-12-11T17:16:38;100538.75;;;-2.66;68.83
63405;BME280;49541;57.840;12.306;2022-12-11T17:21:38;100529.31;;;-2.71;68.62
63405;BME280;49541;57.840;12.306;2022-12-11T17:26:38;100535.63;;;-2.78;69.15
63405;BME280;49541;57.840;12.306;2022-12-11T17:31:39;100540.75;;;-2.75;68.91
63405;BME280;49541;57.840;12.306;2022-12-11T17:36:39;100541.03;;;-2.84;68.49
63405;BME280;49541;57.840;12.306;2022-12-11T17:41:39;100535.56;;;-3.03;69.00
63405;BME280;49541;57.840;12.306;2022-12-11T17:46:40;100539.00;;;-3.31;69.97
63405;BME280;49541;57.840;12.306;2022-12-11T17:51:40;100536.09;;;-3.20;70.65
63405;BME280;49541;57.840;12.306;2022-12-11T17:56:40;100538.31;;;-3.07;70.59
63405;BME280;49541;57.840;12.306;2022-12-11T18:01:40;100532.31;;;-3.10;70.83
63405;BME280;49541;57.840;12.306;2022-12-11T18:06:40;100535.38;;;-2.97;70.26
63405;BME280;49541;57.840;12.306;2022-12-11T18:11:41;100542.59;;;-2.78;69.81
63405;BME280;49541;57.840;12.306;2022-12-11T18:16:41;100537.00;;;-2.66;70.14
63405;BME280;49541;57.840;12.306;2022-12-11T18:21:42;100538.22;;;-2.78;70.02
63405;BME280;49541;57.840;12.306;2022-12-11T18:26:43;100533.97;;;-2.80;70.58
63405;BME280;49541;57.840;12.306;2022-12-11T18:31:43;100542.41;;;-2.72;70.42
63405;BME280;49541;57.840;12.306;2022-12-11T18:36:43;100534.72;;;-2.77;70.57
63405;BME280;49541;57.840;12.306;2022-12-11T18:41:44;100537.19;;;-2.72;70.51
63405;BME280;49541;57.840;12.306;2022-12-11T18:46:44;100524.91;;;-3.23;70.95
63405;BME280;49541;57.840;12.306;2022-12-11T18:51:44;100526.06;;;-2.77;70.55
63405;BME280;49541;57.840;12.306;2022-12-11T18:56:44;100524.31;;;-2.77;70.59
63405;BME280;49541;57.840;12.306;2022-12-11T19:01:45;100518.94;;;-2.99;70.85
63405;BME280;49541;57.840;12.306;2022-12-11T19:06:45;100519.53;;;-2.91;71.33
63405;BME280;49541;57.840;12.306;2022-12-11T19:11:45;100513.31;;;-2.86;71.35
63405;BME280;49541;57.840;12.306;2022-12-11T19:16:46;100518.81;;;-3.22;71.89
63405;BME280;49541;57.840;12.306;2022-12-11T19:21:47;100521.09;;;-2.85;71.33
63405;BME280;49541;57.840;12.306;2022-12-11T19:26:47;100516.72;;;-2.84;71.00
63405;BME280;49541;57.840;12.306;2022-12-11T19:31:48;100518.97;;;-2.74;70.09
63405;BME280;49541;57.840;12.306;2022-12-11T19:36:48;100526.94;;;-2.78;70.69
63405;BME280;49541;57.840;12.306;2022-12-11T19:41:48;100519.22;;;-2.55;69.80
63405;BME280;49541;57.840;12.306;2022-12-11T19:46:49;100533.88;;;-2.77;70.50
63405;BME280;49541;57.840;12.306;2022-12-11T19:51:49;100528.66;;;-2.77;71.08
63405;BME280;49541;57.840;12.306;2022-12-11T19:56:50;100523.00;;;-2.63;69.98
63405;BME280;49541;57.840;12.306;2022-12-11T20:01:50;100528.59;;;-2.49;69.87
63405;BME280;49541;57.840;12.306;2022-12-11T20:06:50;100532.53;;;-2.62;70.33
63405;BME280;49541;57.840;12.306;2022-12-11T20:11:50;100531.78;;;-2.66;70.81
63405;BME280;49541;57.840;12.306;2022-12-11T20:16:51;100521.16;;;-2.60;70.66
63405;BME280;49541;57.840;12.306;2022-12-11T20:21:52;100523.03;;;-2.65;71.38
63405;BME280;49541;57.840;12.306;2022-12-11T20:26:52;100524.69;;;-2.36;71.23
63405;BME280;49541;57.840;12.306;2022-12-11T20:31:53;100528.66;;;-2.51;71.54
63405;BME280;49541;57.840;12.306;2022-12-11T20:36:53;100520.06;;;-2.28;71.40
63405;BME280;49541;57.840;12.306;2022-12-11T20:41:53;100522.09;;;-2.37;71.64
63405;BME280;49541;57.840;12.306;2022-12-11T20:46:53;100522.28;;;-2.42;71.35
63405;BME280;49541;57.840;12.306;2022-12-11T20:51:54;100524.03;;;-2.42;71.50
63405;BME280;49541;57.840;12.306;2022-12-11T20:56:54;100531.47;;;-2.57;71.68
63405;BME280;49541;57.840;12.306;2022-12-11T21:01:54;100522.09;;;-2.62;71.56
63405;BME280;49541;57.840;12.306;2022-12-11T21:06:54;100518.03;;;-2.44;71.71
63405;BME280;49541;57.840;12.306;2022-12-11T21:11:56;100516.16;;;-2.41;70.44
63405;BME280;49541;57.840;12.306;2022-12-11T21:16:56;100518.78;;;-2.41;69.89
63405;BME280;49541;57.840;12.306;2022-12-11T21:21:57;100528.59;;;-2.49;71.21
63405;BME280;49541;57.840;12.306;2022-12-11T21:26:57;100527.41;;;-2.65;71.02
63405;BME280;49541;57.840;12.306;2022-12-11T21:31:58;100526.88;;;-2.75;71.28
63405;BME280;49541;57.840;12.306;2022-12-11T21:36:58;100522.94;;;-2.62;71.09
63405;BME280;49541;57.840;12.306;2022-12-11T21:41:58;100512.53;;;-2.62;69.59
63405;BME280;49541;57.840;12.306;2022-12-11T21:47:00;100515.78;;;-2.55;69.86
63405;BME280;49541;57.840;12.306;2022-12-11T21:52:00;100514.53;;;-2.70;69.75
63405;BME280;49541;57.840;12.306;2022-12-11T21:57:00;100511.78;;;-2.92;70.13
63405;BME280;49541;57.840;12.306;2022-12-11T22:02:00;100520.31;;;-2.89;70.39
63405;BME280;49541;57.840;12.306;2022-12-11T22:07:01;100516.41;;;-3.02;70.55
63405;BME280;49541;57.840;12.306;2022-12-11T22:12:01;100510.09;;;-2.95;70.25
63405;BME280;49541;57.840;12.306;2022-12-11T22:17:01;100514.06;;;-2.83;69.52
63405;BME280;49541;57.840;12.306;2022-12-11T22:22:01;100512.50;;;-3.15;69.83
63405;BME280;49541;57.840;12.306;2022-12-11T22:27:01;100509.94;;;-3.17;70.11
63405;BME280;49541;57.840;12.306;2022-12-11T22:32:02;100517.69;;;-3.15;69.79
63405;BME280;49541;57.840;12.306;2022-12-11T22:37:02;100514.53;;;-2.97;69.55
63405;BME280;49541;57.840;12.306;2022-12-11T22:42:03;100531.25;;;-3.32;70.87
63405;BME280;49541;57.840;12.306;2022-12-11T22:47:03;100535.19;;;-3.48;72.13
63405;BME280;49541;57.840;12.306;2022-12-11T22:52:03;100530.41;;;-3.33;71.58
63405;BME280;49541;57.840;12.306;2022-12-11T22:57:03;100530.09;;;-3.52;71.26
63405;BME280;49541;57.840;12.306;2022-12-11T23:02:04;100535.25;;;-3.20;71.88
63405;BME280;49541;57.840;12.306;2022-12-11T23:07:04;100528.56;;;-3.29;72.15
63405;BME280;49541;57.840;12.306;2022-12-11T23:12:04;100537.69;;;-3.16;72.55
63405;BME280;49541;57.840;12.306;2022-12-11T23:17:05;100535.50;;;-3.01;72.81
63405;BME280;49541;57.840;12.306;2022-12-11T23:22:05;100541.72;;;-2.77;72.55
63405;BME280;49541;57.840;12.306;2022-12-11T23:27:05;100538.56;;;-2.89;73.11
63405;BME280;49541;57.840;12.306;2022-12-11T23:32:05;100539.25;;;-3.10;73.87
63405;BME280;49541;57.840;12.306;2022-12-11T23:37:06;100535.88;;;-2.85;72.96
63405;BME280;49541;57.840;12.306;2022-12-11T23:42:06;100538.41;;;-2.84;72.12
63405;BME280;49541;57.840;12.306;2022-12-11T23:47:08;100536.38;;;-3.29;73.52
63405;BME280;49541;57.840;12.306;2022-12-11T23:52:08;100522.06;;;-3.44;73.71
63405;BME280;49541;57.840;12.306;2022-12-11T23:57:11;100522.34;;;-3.25;73.44
